sensor_id;sensor_type;location;lat;lon;timestamp;pressure;altitude;pressure_sealevel;temperature;humidity
3968;BME280;9221;42.646;23.380;2023-04-28T00:01:12;94702.63;;;8.43;50.94
3968;BME280;9221;42.646;23.380;2023-04-28T00:03:38;94720.97;;;8.64;51.39
3968;BME280;9221;42.646;23.380;2023-04-28T00:06:03;94717.34;;;8.56;51.01
3968;BME280;9221;42.646;23.380;2023-04-28T00:08:30;94733.66;;;8.50;52.14
3968;BME280;9221;42.646;23.380;2023-04-28T00:10:55;94722.19;;;8.29;51.78
3968;BME280;9221;42.646;23.380;2023-04-28T00:13:21;94726.13;;;8.35;51.56
3968;BME280;9221;42.646;23.380;2023-04-28T00:15:46;94670.53;;;7.99;51.97
3968;BME280;9221;42.646;23.380;2023-04-28T00:18:12;94597.84;;;7.59;51.40
3968;BME280;9221;42.646;23.380;2023-04-28T00:20:37;94694.78;;;8.12;52.02
3968;BME280;9221;42.646;23.380;2023-04-28T00:23:02;94681.88;;;8.00;51.87
3968;BME280;9221;42.646;23.380;2023-04-28T00:25:28;94664.84;;;7.94;52.40
3968;BME280;9221;42.646;23.380;2023-04-28T00:27:53;94743.13;;;8.31;51.83
3968;BME280;9221;42.646;23.380;2023-04-28T00:30:19;94727.59;;;8.28;52.08
3968;BME280;9221;42.646;23.380;2023-04-28T00:32:44;94731.13;;;8.17;52.70
3968;BME280;9221;42.646;23.380;2023-04-28T00:35:09;94667.22;;;7.66;52.96
3968;BME280;9221;42.646;23.380;2023-04-28T00:37:36;94737.31;;;8.06;52.98
3968;BME280;9221;42.646;23.380;2023-04-28T00:40:02;94736.72;;;7.93;52.68
3968;BME280;9221;42.646;23.380;2023-04-28T00:42:27;94705.34;;;7.70;53.10
3968;BME280;9221;42.646;23.380;2023-04-28T00:44:53;94608.97;;;7.20;53.30
3968;BME280;9221;42.646;23.380;2023-04-28T00:47:18;94662.06;;;7.55;53.64
3968;BME280;9221;42.646;23.380;2023-04-28T00:49:44;94742.84;;;8.03;53.60
3968;BME280;9221;42.646;23.380;2023-04-28T00:52:09;94737.28;;;7.96;53.36
3968;BME280;9221;42.646;23.380;2023-04-28T00:54:35;94813.56;;;7.95;53.57
3968;BME280;9221;42.646;23.380;2023-04-28T00:57:01;94744.72;;;7.91;53.18
3968;BME280;9221;42.646;23.380;2023-04-28T00:59:27;94670.31;;;7.29;53.93
3968;BME280;9221;42.646;23.380;2023-04-28T01:01:52;94673.41;;;7.34;53.75
3968;BME280;9221;42.646;23.380;2023-04-28T01:04:19;94737.38;;;7.64;54.37
3968;BME280;9221;42.646;23.380;2023-04-28T01:06:46;94739.03;;;7.65;54.31
3968;BME280;9221;42.646;23.380;2023-04-28T01:09:12;94727.88;;;7.52;54.05
3968;BME280;9221;42.646;23.380;2023-04-28T01:11:37;94748.72;;;7.65;54.65
3968;BME280;9221;42.646;23.380;2023-04-28T01:14:03;94749.66;;;7.63;54.26
3968;BME280;9221;42.646;23.380;2023-04-28T01:16:28;94711.25;;;7.41;54.41
3968;BME280;9221;42.646;23.380;2023-04-28T01:18:56;94727.00;;;7.41;54.22
3968;BME280;9221;42.646;23.380;2023-04-28T01:21:26;94779.22;;;7.44;54.67
3968;BME280;9221;42.646;23.380;2023-04-28T01:23:55;94751.84;;;7.37;54.57
3968;BME280;9221;42.646;23.380;2023-04-28T01:26:21;94679.00;;;7.08;54.81
3968;BME280;9221;42.646;23.380;2023-04-28T01:28:46;94753.19;;;7.53;54.46
3968;BME280;9221;42.646;23.380;2023-04-28T01:31:12;94788.25;;;7.52;54.20
3968;BME280;9221;42.646;23.380;2023-04-28T01:33:37;94735.34;;;7.47;54.65
3968;BME280;9221;42.646;23.380;2023-04-28T01:36:03;94747.72;;;7.44;53.70
3968;BME280;9221;42.646;23.380;2023-04-28T01:38:28;94780.56;;;7.39;54.41
3968;BME280;9221;42.646;23.380;2023-04-28T01:40:54;94783.66;;;7.44;54.42
3968;BME280;9221;42.646;23.380;2023-04-28T01:43:19;94689.25;;;7.11;54.28
3968;BME280;9221;42.646;23.380;2023-04-28T01:45:45;94753.19;;;7.53;54.32
3968;BME280;9221;42.646;23.380;2023-04-28T01:48:10;94735.13;;;7.38;53.95
3968;BME280;9221;42.646;23.380;2023-04-28T01:50:35;94768.22;;;7.51;54.32
3968;BME280;9221;42.646;23.380;2023-04-28T01:53:01;94755.53;;;7.56;53.58
3968;BME280;9221;42.646;23.380;2023-04-28T01:55:26;94750.16;;;7.36;54.29
3968;BME280;9221;42.646;23.380;2023-04-28T01:57:51;94739.88;;;7.44;53.76
3968;BME280;9221;42.646;23.380;2023-04-28T02:00:17;94755.88;;;7.41;53.37
3968;BME280;9221;42.646;23.380;2023-04-28T02:02:42;94781.19;;;7.31;53.67
3968;BME280;9221;42.646;23.380;2023-04-28T02:05:08;94686.81;;;6.99;54.21
3968;BME280;9221;42.646;23.380;2023-04-28T02:07:33;94791.88;;;7.39;54.40
3968;BME280;9221;42.646;23.380;2023-04-28T02:09:59;94690.25;;;6.99;54.30
3968;BME280;9221;42.646;23.380;2023-04-28T02:12:24;94722.38;;;7.13;54.03
3968;BME280;9221;42.646;23.380;2023-04-28T02:14:50;94754.25;;;7.29;54.00
3968;BME280;9221;42.646;23.380;2023-04-28T02:17:15;94754.75;;;7.23;54.54
3968;BME280;9221;42.646;23.380;2023-04-28T02:19:40;94760.97;;;7.22;54.50
3968;BME280;9221;42.646;23.380;2023-04-28T02:22:06;94755.00;;;7.20;54.18
3968;BME280;9221;42.646;23.380;2023-04-28T02:24:34;94716.97;;;6.93;54.47
3968;BME280;9221;42.646;23.380;2023-04-28T02:27:00;94770.47;;;7.23;54.55
3968;BME280;9221;42.646;23.380;2023-04-28T02:29:26;94769.06;;;7.19;54.81
3968;BME280;9221;42.646;23.380;2023-04-28T02:31:51;94776.06;;;7.29;54.28
3968;BME280;9221;42.646;23.380;2023-04-28T02:34:17;94673.44;;;6.69;54.86
3968;BME280;9221;42.646;23.380;2023-04-28T02:36:42;94808.88;;;7.24;54.91
3968;BME280;9221;42.646;23.380;2023-04-28T02:39:08;94769.28;;;7.27;54.70
3968;BME280;9221;42.646;23.380;2023-04-28T02:41:34;94716.72;;;6.96;54.42
3968;BME280;9221;42.646;23.380;2023-04-28T02:43:59;94753.59;;;7.16;54.46
3968;BME280;9221;42.646;23.380;2023-04-28T02:46:25;94770.75;;;7.20;54.56
3968;BME280;9221;42.646;23.380;2023-04-28T02:48:50;94795.75;;;7.24;55.03
3968;BME280;9221;42.646;23.380;2023-04-28T02:51:15;94780.03;;;7.24;54.91
3968;BME280;9221;42.646;23.380;2023-04-28T02:53:41;94753.63;;;7.04;54.88
3968;BME280;9221;42.646;23.380;2023-04-28T02:56:06;94810.34;;;7.17;54.98
3968;BME280;9221;42.646;23.380;2023-04-28T02:58:31;94778.13;;;7.15;54.97
3968;BME280;9221;42.646;23.380;2023-04-28T03:00:57;94772.19;;;7.13;54.79
3968;BME280;9221;42.646;23.380;2023-04-28T03:03:22;94734.16;;;6.86;54.86
3968;BME280;9221;42.646;23.380;2023-04-28T03:05:48;94794.38;;;7.08;55.36
3968;BME280;9221;42.646;23.380;2023-04-28T03:08:13;94723.44;;;6.77;54.88
3968;BME280;9221;42.646;23.380;2023-04-28T03:10:38;94833.94;;;7.17;55.06
3968;BME280;9221;42.646;23.380;2023-04-28T03:13:04;94760.44;;;7.07;55.05
3968;BME280;9221;42.646;23.380;2023-04-28T03:15:30;94733.16;;;6.98;54.84
3968;BME280;9221;42.646;23.380;2023-04-28T03:17:55;94740.78;;;7.01;54.81
3968;BME280;9221;42.646;23.380;2023-04-28T03:20:21;94713.44;;;6.83;54.19
3968;BME280;9221;42.646;23.380;2023-04-28T03:22:46;94759.84;;;7.03;54.62
3968;BME280;9221;42.646;23.380;2023-04-28T03:25:11;94816.94;;;7.32;54.80
3968;BME280;9221;42.646;23.380;2023-04-28T03:27:37;94807.97;;;7.14;54.74
3968;BME280;9221;42.646;23.380;2023-04-28T03:30:03;94811.28;;;7.16;54.88
3968;BME280;9221;42.646;23.380;2023-04-28T03:32:28;94817.94;;;7.20;54.54
3968;BME280;9221;42.646;23.380;2023-04-28T03:34:53;94820.09;;;7.15;54.46
3968;BME280;9221;42.646;23.380;2023-04-28T03:37:19;94813.03;;;6.83;54.53
3968;BME280;9221;42.646;23.380;2023-04-28T03:39:44;94823.69;;;7.14;54.84
3968;BME280;9221;42.646;23.380;2023-04-28T03:42:10;94826.41;;;7.12;54.63
3968;BME280;9221;42.646;23.380;2023-04-28T03:44:35;94785.19;;;6.70;54.03
3968;BME280;9221;42.646;23.380;2023-04-28T03:47:00;94870.66;;;7.17;54.16
3968;BME280;9221;42.646;23.380;2023-04-28T03:49:26;94711.75;;;6.38;53.67
3968;BME280;9221;42.646;23.380;2023-04-28T03:51:51;94829.91;;;7.13;53.93
3968;BME280;9221;42.646;23.380;2023-04-28T03:54:17;94783.47;;;6.92;53.64
3968;BME280;9221;42.646;23.380;2023-04-28T03:56:43;94829.38;;;7.19;53.69
3968;BME280;9221;42.646;23.380;2023-04-28T03:59:08;94850.03;;;7.23;53.32
3968;BME280;9221;42.646;23.380;2023-04-28T04:01:36;94795.63;;;6.93;53.43
3968;BME280;9221;42.646;23.380;2023-04-28T04:04:02;94904.47;;;7.31;53.03
3968;BME280;9221;42.646;23.380;2023-04-28T04:06:27;94791.13;;;6.84;53.28
3968;BME280;9221;42.646;23.380;2023-04-28T04:08:53;94902.81;;;7.30;53.16
3968;BME280;9221;42.646;23.380;2023-04-28T04:11:18;94881.06;;;7.39;52.63
3968;BME280;9221;42.646;23.380;2023-04-28T04:13:44;94878.22;;;7.31;53.27
3968;BME280;9221;42.646;23.380;2023-04-28T04:16:09;94844.91;;;7.10;52.72
3968;BME280;9221;42.646;23.380;2023-04-28T04:18:34;94820.34;;;7.11;53.56
3968;BME280;9221;42.646;23.380;2023-04-28T04:21:00;94878.88;;;7.56;53.00
3968;BME280;9221;42.646;23.380;2023-04-28T04:23:25;94812.00;;;7.18;52.66
3968;BME280;9221;42.646;23.380;2023-04-28T04:25:51;94867.69;;;7.54;52.37
3968;BME280;9221;42.646;23.380;2023-04-28T04:28:16;94821.53;;;7.19;52.58
3968;BME280;9221;42.646;23.380;2023-04-28T04:30:42;94800.13;;;7.02;52.94
3968;BME280;9221;42.646;23.380;2023-04-28T04:33:07;94934.47;;;7.61;53.20
3968;BME280;9221;42.646;23.380;2023-04-28T04:35:33;94925.69;;;7.51;52.24
3968;BME280;9221;42.646;23.380;2023-04-28T04:37:59;94821.78;;;7.16;53.07
3968;BME280;9221;42.646;23.380;2023-04-28T04:40:25;94939.47;;;7.64;52.45
3968;BME280;9221;42.646;23.380;2023-04-28T04:42:51;94829.38;;;7.19;52.13
3968;BME280;9221;42.646;23.380;2023-04-28T04:45:16;94761.72;;;6.69;52.49
3968;BME280;9221;42.646;23.380;2023-04-28T04:47:42;94910.16;;;7.59;52.49
3968;BME280;9221;42.646;23.380;2023-04-28T04:50:08;94943.31;;;7.60;52.12
3968;BME280;9221;42.646;23.380;2023-04-28T04:52:33;94796.19;;;6.97;52.29
3968;BME280;9221;42.646;23.380;2023-04-28T04:54:58;94910.91;;;7.71;52.13
3968;BME280;9221;42.646;23.380;2023-04-28T04:57:24;94850.06;;;7.44;52.07
3968;BME280;9221;42.646;23.380;2023-04-28T04:59:50;94906.53;;;7.92;51.57
3968;BME280;9221;42.646;23.380;2023-04-28T05:02:16;94837.59;;;7.58;51.37
3968;BME280;9221;42.646;23.380;2023-04-28T05:04:41;94915.69;;;8.09;50.93
3968;BME280;9221;42.646;23.380;2023-04-28T05:07:06;94954.34;;;8.07;50.75
3968;BME280;9221;42.646;23.380;2023-04-28T05:09:32;94858.75;;;7.77;50.94
3968;BME280;9221;42.646;23.380;2023-04-28T05:11:58;94852.34;;;7.70;50.58
3968;BME280;9221;42.646;23.380;2023-04-28T05:14:23;94919.91;;;8.22;50.61
3968;BME280;9221;42.646;23.380;2023-04-28T05:16:48;94904.38;;;8.19;50.35
3968;BME280;9221;42.646;23.380;2023-04-28T05:19:14;94902.47;;;8.21;50.29
3968;BME280;9221;42.646;23.380;2023-04-28T05:21:40;94877.44;;;8.17;49.97
3968;BME280;9221;42.646;23.380;2023-04-28T05:24:05;94793.78;;;7.70;49.50
3968;BME280;9221;42.646;23.380;2023-04-28T05:26:31;94849.56;;;8.04;49.51
3968;BME280;9221;42.646;23.380;2023-04-28T05:28:56;94846.66;;;8.07;49.42
3968;BME280;9221;42.646;23.380;2023-04-28T05:31:22;94934.66;;;8.55;49.82
3968;BME280;9221;42.646;23.380;2023-04-28T05:33:47;94953.66;;;8.59;49.83
3968;BME280;9221;42.646;23.380;2023-04-28T05:36:12;94896.19;;;8.54;49.76
3968;BME280;9221;42.646;23.380;2023-04-28T05:38:41;94896.72;;;8.27;50.06
3968;BME280;9221;42.646;23.380;2023-04-28T05:41:06;94846.53;;;8.09;49.56
3968;BME280;9221;42.646;23.380;2023-04-28T05:43:31;94860.19;;;8.24;50.44
3968;BME280;9221;42.646;23.380;2023-04-28T05:45:57;94871.47;;;8.36;50.09
3968;BME280;9221;42.646;23.380;2023-04-28T05:48:22;94907.09;;;8.50;50.38
3968;BME280;9221;42.646;23.380;2023-04-28T05:50:48;94900.19;;;8.49;50.76
3968;BME280;9221;42.646;23.380;2023-04-28T05:53:13;94920.44;;;8.58;50.32
3968;BME280;9221;42.646;23.380;2023-04-28T05:55:38;94949.66;;;8.43;50.72
3968;BME280;9221;42.646;23.380;2023-04-28T05:58:04;94944.34;;;8.55;50.69
3968;BME280;9221;42.646;23.380;2023-04-28T06:00:29;94898.81;;;8.54;50.89
3968;BME280;9221;42.646;23.380;2023-04-28T06:02:55;94894.97;;;8.37;50.78
3968;BME280;9221;42.646;23.380;2023-04-28T06:05:21;94927.72;;;8.75;50.85
3968;BME280;9221;42.646;23.380;2023-04-28T06:07:47;94946.59;;;8.80;50.01
3968;BME280;9221;42.646;23.380;2023-04-28T06:10:12;94905.38;;;8.91;49.56
3968;BME280;9221;42.646;23.380;2023-04-28T06:12:37;94916.47;;;8.94;48.88
3968;BME280;9221;42.646;23.380;2023-04-28T06:15:04;94872.84;;;8.61;48.88
3968;BME280;9221;42.646;23.380;2023-04-28T06:17:29;94910.06;;;8.87;48.46
3968;BME280;9221;42.646;23.380;2023-04-28T06:19:56;94837.88;;;8.39;48.27
3968;BME280;9221;42.646;23.380;2023-04-28T06:22:23;94833.50;;;8.50;48.57
3968;BME280;9221;42.646;23.380;2023-04-28T06:24:49;94913.09;;;9.13;48.46
3968;BME280;9221;42.646;23.380;2023-04-28T06:27:14;94901.69;;;9.03;47.93
3968;BME280;9221;42.646;23.380;2023-04-28T06:29:40;94921.28;;;9.20;48.45
3968;BME280;9221;42.646;23.380;2023-04-28T06:32:05;94868.03;;;8.66;47.95
3968;BME280;9221;42.646;23.380;2023-04-28T06:34:30;94841.56;;;8.58;48.14
3968;BME280;9221;42.646;23.380;2023-04-28T06:37:00;94906.25;;;9.01;48.49
3968;BME280;9221;42.646;23.380;2023-04-28T06:39:25;94946.75;;;9.20;48.01
3968;BME280;9221;42.646;23.380;2023-04-28T06:41:51;94901.19;;;9.19;47.79
3968;BME280;9221;42.646;23.380;2023-04-28T06:44:17;94840.84;;;8.87;46.87
3968;BME280;9221;42.646;23.380;2023-04-28T06:46:42;94892.63;;;9.27;47.04
3968;BME280;9221;42.646;23.380;2023-04-28T06:49:07;94938.75;;;9.31;47.24
3968;BME280;9221;42.646;23.380;2023-04-28T06:51:33;94847.59;;;9.10;46.97
3968;BME280;9221;42.646;23.380;2023-04-28T06:53:58;94867.78;;;9.20;45.92
3968;BME280;9221;42.646;23.380;2023-04-28T06:56:24;94795.97;;;8.78;46.18
3968;BME280;9221;42.646;23.380;2023-04-28T06:58:50;94907.38;;;9.59;45.82
3968;BME280;9221;42.646;23.380;2023-04-28T07:01:15;94841.25;;;9.23;45.46
3968;BME280;9221;42.646;23.380;2023-04-28T07:03:41;94839.28;;;9.25;46.67
3968;BME280;9221;42.646;23.380;2023-04-28T07:06:07;94909.88;;;9.70;45.22
3968;BME280;9221;42.646;23.380;2023-04-28T07:08:33;94910.00;;;9.69;45.42
3968;BME280;9221;42.646;23.380;2023-04-28T07:10:58;94870.34;;;9.51;45.18
3968;BME280;9221;42.646;23.380;2023-04-28T07:13:24;94920.84;;;9.95;45.33
3968;BME280;9221;42.646;23.380;2023-04-28T07:15:49;94902.53;;;10.03;44.83
3968;BME280;9221;42.646;23.380;2023-04-28T07:18:15;94952.47;;;10.14;44.49
3968;BME280;9221;42.646;23.380;2023-04-28T07:20:40;94860.69;;;9.61;43.95
3968;BME280;9221;42.646;23.380;2023-04-28T07:23:06;94841.25;;;9.62;43.83
3968;BME280;9221;42.646;23.380;2023-04-28T07:25:31;94921.41;;;10.08;44.38
3968;BME280;9221;42.646;23.380;2023-04-28T07:27:57;94937.50;;;10.05;45.07
3968;BME280;9221;42.646;23.380;2023-04-28T07:30:22;94908.63;;;10.23;45.08
3968;BME280;9221;42.646;23.380;2023-04-28T07:32:47;94893.09;;;10.30;45.25
3968;BME280;9221;42.646;23.380;2023-04-28T07:35:13;94917.94;;;10.57;44.84
3968;BME280;9221;42.646;23.380;2023-04-28T07:37:38;94844.44;;;10.14;44.33
3968;BME280;9221;42.646;23.380;2023-04-28T07:40:05;94884.22;;;10.31;44.34
3968;BME280;9221;42.646;23.380;2023-04-28T07:42:31;94817.66;;;10.19;44.32
3968;BME280;9221;42.646;23.380;2023-04-28T07:44:56;94911.16;;;10.92;44.17
3968;BME280;9221;42.646;23.380;2023-04-28T07:47:23;94912.72;;;10.84;43.33
3968;BME280;9221;42.646;23.380;2023-04-28T07:49:48;94898.50;;;10.95;42.99
3968;BME280;9221;42.646;23.380;2023-04-28T07:52:14;94936.38;;;11.42;41.93
3968;BME280;9221;42.646;23.380;2023-04-28T07:54:39;94915.13;;;11.61;41.78
3968;BME280;9221;42.646;23.380;2023-04-28T07:57:04;94908.50;;;11.75;40.80
3968;BME280;9221;42.646;23.380;2023-04-28T07:59:34;94911.94;;;12.22;40.39
3968;BME280;9221;42.646;23.380;2023-04-28T08:02:00;94842.69;;;12.44;39.25
3968;BME280;9221;42.646;23.380;2023-04-28T08:04:25;94928.09;;;13.07;38.65
3968;BME280;9221;42.646;23.380;2023-04-28T08:06:50;94845.50;;;12.69;37.87
3968;BME280;9221;42.646;23.380;2023-04-28T08:09:16;94908.88;;;13.05;37.95
3968;BME280;9221;42.646;23.380;2023-04-28T08:11:41;94778.84;;;12.74;37.65
3968;BME280;9221;42.646;23.380;2023-04-28T08:14:06;94914.31;;;13.73;37.14
3968;BME280;9221;42.646;23.380;2023-04-28T08:16:32;94907.56;;;14.03;36.43
3968;BME280;9221;42.646;23.380;2023-04-28T08:19:01;94850.38;;;13.84;35.89
3968;BME280;9221;42.646;23.380;2023-04-28T08:21:26;94854.50;;;13.70;36.52
3968;BME280;9221;42.646;23.380;2023-04-28T08:23:51;94862.16;;;14.14;35.50
3968;BME280;9221;42.646;23.380;2023-04-28T08:26:17;94856.19;;;14.53;35.08
3968;BME280;9221;42.646;23.380;2023-04-28T08:28:42;94863.75;;;14.89;35.47
3968;BME280;9221;42.646;23.380;2023-04-28T08:31:08;94865.34;;;15.15;34.65
3968;BME280;9221;42.646;23.380;2023-04-28T08:33:33;94900.94;;;15.77;34.32
3968;BME280;9221;42.646;23.380;2023-04-28T08:35:59;94886.22;;;15.98;34.26
3968;BME280;9221;42.646;23.380;2023-04-28T08:38:25;94906.63;;;15.74;33.60
3968;BME280;9221;42.646;23.380;2023-04-28T08:40:50;94832.81;;;15.84;34.02
3968;BME280;9221;42.646;23.380;2023-04-28T08:43:16;94916.97;;;16.47;32.67
3968;BME280;9221;42.646;23.380;2023-04-28T08:45:42;94888.94;;;16.59;32.64
3968;BME280;9221;42.646;23.380;2023-04-28T08:48:20;94893.53;;;16.65;32.22
3968;BME280;9221;42.646;23.380;2023-04-28T08:50:53;94908.44;;;16.98;32.22
3968;BME280;9221;42.646;23.380;2023-04-28T08:53:25;94894.47;;;17.11;31.50
3968;BME280;9221;42.646;23.380;2023-04-28T08:55:55;94818.75;;;17.05;31.00
3968;BME280;9221;42.646;23.380;2023-04-28T08:58:25;94872.47;;;17.08;31.14
3968;BME280;9221;42.646;23.380;2023-04-28T09:00:52;94818.56;;;16.91;31.01
3968;BME280;9221;42.646;23.380;2023-04-28T09:03:18;94873.22;;;17.17;31.15
3968;BME280;9221;42.646;23.380;2023-04-28T09:05:43;94896.28;;;17.40;30.83
3968;BME280;9221;42.646;23.380;2023-04-28T09:08:08;94856.03;;;17.71;30.47
3968;BME280;9221;42.646;23.380;2023-04-28T09:10:36;94843.06;;;17.83;30.58
3968;BME280;9221;42.646;23.380;2023-04-28T09:13:02;94815.72;;;17.96;30.04
3968;BME280;9221;42.646;23.380;2023-04-28T09:15:30;94866.69;;;18.44;28.50
3968;BME280;9221;42.646;23.380;2023-04-28T09:17:56;94848.44;;;18.26;28.92
3968;BME280;9221;42.646;23.380;2023-04-28T09:20:23;94788.22;;;17.81;28.97
3968;BME280;9221;42.646;23.380;2023-04-28T09:22:50;94783.25;;;17.92;28.82
3968;BME280;9221;42.646;23.380;2023-04-28T09:25:16;94878.34;;;18.15;29.45
3968;BME280;9221;42.646;23.380;2023-04-28T09:27:42;94864.41;;;18.20;28.57
3968;BME280;9221;42.646;23.380;2023-04-28T09:30:08;94872.88;;;18.23;28.53
3968;BME280;9221;42.646;23.380;2023-04-28T09:32:34;94813.47;;;18.21;28.99
3968;BME280;9221;42.646;23.380;2023-04-28T09:35:00;94811.06;;;18.83;28.71
3968;BME280;9221;42.646;23.380;2023-04-28T09:37:27;94841.88;;;19.42;28.22
3968;BME280;9221;42.646;23.380;2023-04-28T09:39:55;94824.69;;;19.23;27.72
3968;BME280;9221;42.646;23.380;2023-04-28T09:42:38;94872.09;;;19.08;28.47
3968;BME280;9221;42.646;23.380;2023-04-28T09:45:04;94720.38;;;18.75;27.80
3968;BME280;9221;42.646;23.380;2023-04-28T09:47:31;94832.75;;;19.30;27.80
3968;BME280;9221;42.646;23.380;2023-04-28T09:49:59;94821.06;;;18.96;27.31
3968;BME280;9221;42.646;23.380;2023-04-28T09:52:26;94817.97;;;18.71;27.54
3968;BME280;9221;42.646;23.380;2023-04-28T09:54:53;94805.00;;;18.68;28.17
3968;BME280;9221;42.646;23.380;2023-04-28T09:57:19;94816.56;;;18.75;28.11
3968;BME280;9221;42.646;23.380;2023-04-28T09:59:52;94810.13;;;19.33;27.36
3968;BME280;9221;42.646;23.380;2023-04-28T10:02:20;94830.75;;;20.07;26.77
3968;BME280;9221;42.646;23.380;2023-04-28T10:04:47;94758.44;;;19.87;26.21
3968;BME280;9221;42.646;23.380;2023-04-28T10:07:14;94820.22;;;19.92;26.16
3968;BME280;9221;42.646;23.380;2023-04-28T10:09:43;94743.06;;;19.27;26.57
3968;BME280;9221;42.646;23.380;2023-04-28T10:12:13;94797.09;;;19.65;26.12
3968;BME280;9221;42.646;23.380;2023-04-28T10:14:38;94825.88;;;19.62;26.00
3968;BME280;9221;42.646;23.380;2023-04-28T10:17:05;94766.63;;;19.79;25.29
3968;BME280;9221;42.646;23.380;2023-04-28T10:19:32;94812.66;;;20.16;25.18
3968;BME280;9221;42.646;23.380;2023-04-28T10:27:47;94793.50;;;20.39;24.88
3968;BME280;9221;42.646;23.380;2023-04-28T10:30:18;94732.50;;;20.48;24.58
3968;BME280;9221;42.646;23.380;2023-04-28T10:32:44;94691.53;;;20.27;24.35
3968;BME280;9221;42.646;23.380;2023-04-28T10:38:16;94806.28;;;20.77;25.26
3968;BME280;9221;42.646;23.380;2023-04-28T10:40:43;94789.78;;;20.47;25.79
3968;BME280;9221;42.646;23.380;2023-04-28T10:43:10;94771.41;;;20.98;25.51
3968;BME280;9221;42.646;23.380;2023-04-28T10:48:20;94754.50;;;21.56;23.89
3968;BME280;9221;42.646;23.380;2023-04-28T10:56:08;94745.28;;;20.73;24.65
3968;BME280;9221;42.646;23.380;2023-04-28T10:58:34;94700.88;;;20.90;24.77
3968;BME280;9221;42.646;23.380;2023-04-28T11:06:20;94781.19;;;21.30;24.11
3968;BME280;9221;42.646;23.380;2023-04-28T11:08:47;94744.31;;;21.19;24.13
3968;BME280;9221;42.646;23.380;2023-04-28T11:13:39;94690.41;;;20.82;24.55
3968;BME280;9221;42.646;23.380;2023-04-28T11:16:05;94742.59;;;21.32;23.67
3968;BME280;9221;42.646;23.380;2023-04-28T11:21:08;94727.78;;;22.00;23.14
3968;BME280;9221;42.646;23.380;2023-04-28T11:23:33;94764.31;;;22.33;22.51
3968;BME280;9221;42.646;23.380;2023-04-28T11:25:59;94700.22;;;21.86;22.74
3968;BME280;9221;42.646;23.380;2023-04-28T11:28:24;94729.72;;;21.47;23.61
3968;BME280;9221;42.646;23.380;2023-04-28T11:30:50;94716.50;;;21.84;23.27
3968;BME280;9221;42.646;23.380;2023-04-28T11:33:16;94632.03;;;21.87;22.69
3968;BME280;9221;42.646;23.380;2023-04-28T11:35:42;94665.94;;;22.31;22.01
3968;BME280;9221;42.646;23.380;2023-04-28T11:38:07;94729.88;;;22.48;22.09
3968;BME280;9221;42.646;23.380;2023-04-28T11:40:33;94723.34;;;22.12;22.50
3968;BME280;9221;42.646;23.380;2023-04-28T11:42:59;94721.88;;;21.84;22.48
3968;BME280;9221;42.646;23.380;2023-04-28T11:45:25;94663.88;;;21.83;22.75
3968;BME280;9221;42.646;23.380;2023-04-28T11:47:50;94659.19;;;21.72;22.70
3968;BME280;9221;42.646;23.380;2023-04-28T11:50:16;94674.59;;;21.51;22.16
3968;BME280;9221;42.646;23.380;2023-04-28T11:52:48;94659.50;;;21.57;21.85
3968;BME280;9221;42.646;23.380;2023-04-28T11:55:15;94657.41;;;22.16;22.03
3968;BME280;9221;42.646;23.380;2023-04-28T11:57:41;94773.09;;;22.21;21.18
3968;BME280;9221;42.646;23.380;2023-04-28T12:00:15;94649.88;;;21.74;21.06
3968;BME280;9221;42.646;23.380;2023-04-28T12:02:46;94649.41;;;22.09;20.44
3968;BME280;9221;42.646;23.380;2023-04-28T12:05:11;94697.50;;;22.61;20.80
3968;BME280;9221;42.646;23.380;2023-04-28T12:07:41;94695.25;;;22.77;20.87
3968;BME280;9221;42.646;23.380;2023-04-28T12:10:13;94712.88;;;22.73;20.47
3968;BME280;9221;42.646;23.380;2023-04-28T12:12:43;94686.91;;;22.85;22.25
3968;BME280;9221;42.646;23.380;2023-04-28T12:15:09;94618.53;;;22.93;21.51
3968;BME280;9221;42.646;23.380;2023-04-28T12:17:39;94685.28;;;23.52;20.65
3968;BME280;9221;42.646;23.380;2023-04-28T12:22:49;94620.34;;;22.62;21.20
3968;BME280;9221;42.646;23.380;2023-04-28T12:25:16;94657.97;;;23.18;21.30
3968;BME280;9221;42.646;23.380;2023-04-28T12:28:17;94681.88;;;23.87;20.87
3968;BME280;9221;42.646;23.380;2023-04-28T12:30:43;94679.59;;;23.72;20.42
3968;BME280;9221;42.646;23.380;2023-04-28T12:33:25;94668.09;;;23.64;20.84
3968;BME280;9221;42.646;23.380;2023-04-28T12:35:51;94664.97;;;23.68;20.79
3968;BME280;9221;42.646;23.380;2023-04-28T12:38:19;94671.28;;;23.85;20.20
3968;BME280;9221;42.646;23.380;2023-04-28T12:40:44;94669.38;;;23.92;20.04
3968;BME280;9221;42.646;23.380;2023-04-28T12:43:10;94657.44;;;24.12;20.53
3968;BME280;9221;42.646;23.380;2023-04-28T12:45:36;94601.44;;;23.90;20.40
3968;BME280;9221;42.646;23.380;2023-04-28T12:48:01;94649.69;;;24.04;20.53
3968;BME280;9221;42.646;23.380;2023-04-28T12:50:27;94641.28;;;24.12;20.70
3968;BME280;9221;42.646;23.380;2023-04-28T12:52:56;94664.56;;;23.94;21.06
3968;BME280;9221;42.646;23.380;2023-04-28T12:55:22;94750.69;;;23.52;21.54
3968;BME280;9221;42.646;23.380;2023-04-28T12:57:47;94593.19;;;23.19;22.15
3968;BME280;9221;42.646;23.380;2023-04-28T13:00:13;94643.41;;;23.68;22.23
3968;BME280;9221;42.646;23.380;2023-04-28T13:02:40;94567.31;;;23.72;22.14
3968;BME280;9221;42.646;23.380;2023-04-28T13:05:06;94650.78;;;24.26;21.70
3968;BME280;9221;42.646;23.380;2023-04-28T13:07:34;94570.97;;;24.02;21.77
3968;BME280;9221;42.646;23.380;2023-04-28T13:10:00;94642.78;;;24.31;21.31
3968;BME280;9221;42.646;23.380;2023-04-28T13:12:25;94574.63;;;24.07;21.55
3968;BME280;9221;42.646;23.380;2023-04-28T13:14:51;94570.00;;;23.72;21.32
3968;BME280;9221;42.646;23.380;2023-04-28T13:17:16;94473.75;;;23.20;21.65
3968;BME280;9221;42.646;23.380;2023-04-28T13:19:42;94648.25;;;23.89;21.46
3968;BME280;9221;42.646;23.380;2023-04-28T13:22:07;94566.25;;;23.61;21.80
3968;BME280;9221;42.646;23.380;2023-04-28T13:24:33;94629.34;;;23.23;21.56
3968;BME280;9221;42.646;23.380;2023-04-28T13:26:59;94627.59;;;23.59;22.27
3968;BME280;9221;42.646;23.380;2023-04-28T13:29:26;94623.16;;;23.77;21.97
3968;BME280;9221;42.646;23.380;2023-04-28T13:31:52;94617.06;;;23.70;22.12
3968;BME280;9221;42.646;23.380;2023-04-28T13:34:17;94564.38;;;23.50;21.64
3968;BME280;9221;42.646;23.380;2023-04-28T13:36:43;94567.97;;;23.44;21.21
3968;BME280;9221;42.646;23.380;2023-04-28T13:39:09;94549.38;;;23.54;21.32
3968;BME280;9221;42.646;23.380;2023-04-28T13:41:41;94628.19;;;23.73;21.36